createdAt,value
2018-08-23T00:01:32.629Z,30.50
2018-08-23T00:04:05.372Z,29.33
2018-08-23T00:06:35.164Z,30.43
2018-08-23T00:09:06.476Z,30.80
2018-08-23T00:11:40.737Z,28.43
2018-08-23T00:14:09.967Z,29.00
2018-08-23T00:16:42.472Z,28.40
2018-08-23T00:19:12.221Z,29.93
2018-08-23T00:21:45.902Z,28.23
2018-08-23T00:24:19.491Z,28.77
2018-08-23T00:26:53.257Z,29.40
2018-08-23T00:29:27.789Z,28.23
2018-08-23T00:32:01.518Z,27.93
2018-08-23T00:34:32.014Z,28.27
2018-08-23T00:37:02.746Z,28.67
2018-08-23T00:39:31.999Z,28.40
2018-08-23T00:42:05.242Z,27.33
2018-08-23T00:44:51.300Z,28.53
2018-08-23T00:47:21.164Z,27.93
2018-08-23T00:49:50.548Z,28.13
2018-08-23T00:52:52.557Z,28.20
2018-08-23T00:55:23.635Z,26.30
2018-08-23T00:57:52.931Z,26.10
2018-08-23T01:00:23.660Z,26.17
2018-08-23T01:02:57.753Z,26.13
2018-08-23T01:05:32.490Z,27.00
2018-08-23T01:08:01.741Z,25.87
2018-08-23T01:10:31.024Z,25.97
2018-08-23T01:13:01.239Z,26.60
2018-08-23T01:15:31.368Z,25.60
2018-08-23T01:18:13.273Z,26.73
2018-08-23T01:20:43.422Z,27.30
2018-08-23T01:23:12.682Z,25.97
2018-08-23T01:25:45.879Z,25.90
2018-08-23T01:28:15.137Z,25.97
2018-08-23T01:30:45.028Z,27.63
2018-08-23T01:33:17.269Z,28.47
2018-08-23T01:35:47.840Z,26.10
2018-08-23T01:38:17.600Z,26.47
2018-08-23T01:40:46.899Z,26.07
2018-08-23T01:43:16.147Z,26.33
2018-08-23T01:45:45.687Z,25.50
2018-08-23T01:48:17.927Z,24.67
2018-08-23T01:50:47.188Z,24.97
2018-08-23T01:53:18.956Z,24.97
2018-08-23T01:55:48.225Z,26.40
2018-08-23T01:58:17.597Z,26.07
2018-08-23T02:00:51.126Z,23.73
2018-08-23T02:03:20.406Z,25.27
2018-08-23T02:05:49.673Z,24.07
2018-08-23T02:08:19.245Z,23.70
2018-08-23T02:10:48.690Z,24.17
2018-08-23T02:13:21.074Z,22.20
2018-08-23T02:15:50.422Z,20.63
2018-08-23T02:18:19.737Z,21.07
2018-08-23T02:20:50.496Z,21.77
2018-08-23T02:23:19.896Z,22.70
2018-08-23T02:25:49.175Z,21.53
2018-08-23T02:28:18.571Z,23.07
2018-08-23T02:30:51.207Z,21.43
2018-08-23T02:33:20.448Z,21.63
2018-08-23T02:36:00.556Z,22.90
2018-08-23T02:38:30.396Z,23.33
2018-08-23T02:40:59.494Z,22.70
2018-08-23T02:43:28.677Z,22.43
2018-08-23T02:45:57.870Z,22.07
2018-08-23T02:48:27.707Z,22.43
2018-08-23T02:50:56.892Z,23.67
2018-08-23T02:53:35.437Z,21.73
2018-08-23T02:56:07.710Z,22.03
2018-08-23T02:58:59.979Z,22.47
2018-08-23T03:01:31.873Z,21.93
2018-08-23T03:04:13.966Z,22.53
2018-08-23T03:06:49.655Z,22.70
2018-08-23T03:09:22.853Z,23.07
2018-08-23T03:11:54.093Z,22.13
2018-08-23T03:14:24.219Z,23.80
2018-08-23T03:17:15.935Z,22.97
2018-08-23T03:20:13.623Z,23.27
2018-08-23T03:22:44.049Z,24.93
2018-08-23T03:25:15.611Z,24.77
2018-08-23T03:27:44.921Z,25.70
2018-08-23T03:30:15.456Z,25.13
2018-08-23T03:32:44.615Z,25.00
2018-08-23T03:35:14.843Z,25.10
2018-08-23T03:37:44.064Z,26.47
2018-08-23T03:40:15.035Z,27.07
2018-08-23T03:42:44.418Z,27.40
2018-08-23T03:45:19.155Z,27.93
2018-08-23T03:47:50.496Z,25.57
2018-08-23T03:50:19.935Z,28.07
2018-08-23T03:52:50.499Z,26.87
2018-08-23T03:55:21.172Z,27.53
2018-08-23T03:58:06.070Z,27.73
2018-08-23T04:01:14.815Z,26.43
2018-08-23T04:03:44.167Z,28.00
2018-08-23T04:06:26.701Z,28.53
2018-08-23T04:08:55.956Z,31.17
2018-08-23T04:11:25.150Z,29.27
2018-08-23T04:13:54.250Z,26.67
2018-08-23T04:16:30.705Z,28.47
2018-08-23T04:18:59.850Z,28.63
2018-08-23T04:21:29.854Z,28.93
2018-08-23T04:23:59.106Z,28.90
2018-08-23T04:26:28.730Z,29.83
2018-08-23T04:28:58.120Z,29.27
2018-08-23T04:31:27.425Z,30.07
2018-08-23T04:33:56.662Z,30.03
2018-08-23T04:36:29.469Z,30.00
2018-08-23T04:39:01.587Z,29.73
2018-08-23T04:41:32.345Z,30.40
2018-08-23T04:44:06.975Z,30.50
2018-08-23T04:46:36.229Z,30.60
2018-08-23T04:49:07.405Z,30.57
2018-08-23T04:51:37.490Z,31.73
2018-08-23T04:54:07.013Z,31.90
2018-08-23T04:56:36.296Z,31.20
2018-08-23T04:59:05.722Z,31.43
2018-08-23T05:01:35.038Z,31.03
2018-08-23T05:04:04.270Z,30.73
2018-08-23T05:06:33.508Z,32.33
2018-08-23T05:09:02.718Z,32.00
2018-08-23T05:11:31.913Z,33.27
2018-08-23T05:14:01.168Z,32.43
2018-08-23T05:16:30.317Z,32.33
2018-08-23T05:18:59.755Z,33.03
2018-08-23T05:21:29.114Z,31.40
2018-08-23T05:24:03.435Z,32.27
2018-08-23T05:26:32.978Z,32.23
2018-08-23T05:29:04.210Z,31.27
2018-08-23T05:31:33.908Z,32.97
2018-08-23T05:34:04.475Z,32.20
2018-08-23T05:36:33.569Z,32.50
2018-08-23T05:39:04.690Z,32.80
2018-08-23T05:41:34.072Z,32.37
2018-08-23T05:44:11.291Z,32.93
2018-08-23T05:46:56.972Z,33.57
2018-08-23T05:49:26.865Z,32.60
2018-08-23T05:51:58.703Z,32.83
2018-08-23T05:54:28.059Z,32.00
2018-08-23T05:56:57.320Z,32.20
2018-08-23T05:59:27.273Z,33.37
2018-08-23T06:01:56.643Z,33.80
2018-08-23T06:04:36.965Z,33.57
2018-08-23T06:07:07.012Z,33.17
2018-08-23T06:09:36.539Z,33.27
2018-08-23T06:12:05.853Z,34.13
2018-08-23T06:14:35.115Z,33.10
2018-08-23T06:17:04.412Z,32.53
2018-08-23T06:19:33.658Z,32.50
2018-08-23T06:22:02.807Z,33.90
2018-08-23T06:24:32.051Z,34.70
2018-08-23T06:27:02.679Z,34.43
2018-08-23T06:29:33.207Z,34.53
2018-08-23T06:32:16.764Z,34.30
2018-08-23T06:34:48.308Z,35.20
2018-08-23T06:37:18.831Z,34.47
2018-08-23T06:39:48.246Z,34.60
2018-08-23T06:42:17.360Z,33.23
2018-08-23T06:44:52.937Z,32.57
2018-08-23T06:47:23.689Z,33.53
2018-08-23T06:49:54.545Z,33.13
2018-08-23T06:52:39.741Z,31.87
2018-08-23T06:55:14.374Z,31.17
2018-08-23T06:57:47.133Z,30.53
2018-08-23T07:00:21.981Z,29.20
2018-08-23T07:02:51.348Z,30.50
2018-08-23T07:05:20.743Z,30.80
2018-08-23T07:07:50.172Z,29.63
2018-08-23T07:10:19.466Z,28.83
2018-08-23T07:12:49.383Z,29.00
2018-08-23T07:15:18.754Z,28.47
2018-08-23T07:17:48.217Z,27.93
2018-08-23T07:20:17.796Z,28.00
2018-08-23T07:22:47.133Z,27.37
2018-08-23T07:25:17.735Z,27.40
2018-08-23T07:27:46.995Z,27.87
2018-08-23T07:30:19.199Z,29.30
2018-08-23T07:32:49.954Z,28.43
2018-08-23T07:35:20.453Z,29.60
2018-08-23T07:37:51.174Z,29.07
2018-08-23T07:40:22.528Z,28.43
2018-08-23T07:42:53.054Z,28.03
2018-08-23T07:45:22.262Z,26.73
2018-08-23T07:47:53.924Z,26.83
2018-08-23T07:50:23.373Z,28.13
2018-08-23T07:52:58.170Z,26.40
2018-08-23T07:55:27.339Z,25.97
2018-08-23T07:57:56.617Z,26.57
2018-08-23T08:00:43.362Z,23.57
2018-08-23T08:03:13.837Z,24.87
2018-08-23T08:05:44.353Z,25.17
2018-08-23T08:08:15.690Z,25.37
2018-08-23T08:10:46.997Z,25.90
2018-08-23T08:13:16.176Z,25.20
2018-08-23T08:15:45.370Z,25.93
2018-08-23T08:18:29.110Z,25.07
2018-08-23T08:21:01.448Z,25.97
2018-08-23T08:23:31.045Z,24.70
2018-08-23T08:26:00.311Z,25.20
2018-08-23T08:28:29.787Z,24.60
2018-08-23T08:31:03.425Z,24.97
2018-08-23T08:33:34.924Z,24.07
2018-08-23T08:36:13.217Z,24.03
2018-08-23T08:38:44.076Z,23.10
2018-08-23T08:41:13.773Z,21.97
2018-08-23T08:43:43.916Z,22.77
2018-08-23T08:46:13.169Z,22.47
2018-08-23T08:48:42.371Z,19.70
2018-08-23T08:51:16.532Z,19.97
2018-08-23T08:53:46.410Z,20.33
2018-08-23T08:56:15.638Z,19.43
2018-08-23T08:58:45.119Z,19.67
2018-08-23T09:01:14.364Z,19.30
2018-08-23T09:03:43.566Z,18.67
2018-08-23T09:06:17.074Z,19.53
2018-08-23T09:08:46.278Z,18.50
2018-08-23T09:11:15.476Z,18.80
2018-08-23T09:13:46.963Z,17.53
2018-08-23T09:16:16.301Z,19.17
2018-08-23T09:18:55.443Z,18.30
2018-08-23T09:21:24.685Z,19.23
2018-08-23T09:23:53.968Z,19.13
2018-08-23T09:26:27.406Z,18.23
2018-08-23T09:28:56.664Z,18.40
2018-08-23T09:31:26.528Z,18.50
2018-08-23T09:33:55.703Z,18.30
2018-08-23T09:36:25.157Z,18.30
2018-08-23T09:38:54.485Z,18.73
2018-08-23T09:41:23.688Z,19.13
2018-08-23T09:43:52.909Z,18.73
2018-08-23T09:46:22.122Z,16.60
2018-08-23T09:48:51.417Z,16.37
2018-08-23T09:51:25.871Z,16.13
2018-08-23T09:53:55.062Z,16.00
2018-08-23T09:56:30.585Z,16.20
2018-08-23T09:58:59.755Z,16.60
2018-08-23T10:01:34.294Z,17.30
2018-08-23T10:04:08.961Z,16.70
2018-08-23T10:07:26.248Z,16.00
2018-08-23T10:10:00.734Z,17.30
2018-08-23T10:12:35.636Z,16.67
2018-08-23T10:15:10.335Z,16.80
2018-08-23T10:17:44.822Z,18.53
2018-08-23T10:20:19.585Z,17.40
2018-08-23T10:22:54.940Z,18.50
2018-08-23T10:25:38.184Z,18.60
2018-08-23T10:28:09.235Z,18.37
2018-08-23T10:30:38.689Z,18.77
2018-08-23T10:33:07.956Z,20.47
2018-08-23T10:35:38.468Z,19.17
2018-08-23T10:38:08.325Z,19.97
2018-08-23T10:40:37.985Z,20.80
2018-08-23T10:43:07.220Z,19.47
2018-08-23T10:45:37.254Z,21.17
2018-08-23T10:48:12.068Z,21.33
2018-08-23T10:50:41.358Z,20.53
2018-08-23T10:53:10.592Z,21.30
2018-08-23T10:55:39.836Z,20.40
2018-08-23T10:58:09.401Z,20.27
2018-08-23T11:00:38.878Z,21.10
2018-08-23T11:03:08.770Z,21.13
2018-08-23T11:05:38.653Z,20.10
2018-08-23T11:08:13.228Z,20.20
2018-08-23T11:10:47.825Z,19.80
2018-08-23T11:13:22.385Z,18.63
2018-08-23T11:15:55.913Z,20.27
2018-08-23T11:18:30.637Z,18.23
2018-08-23T11:20:59.948Z,18.73
2018-08-23T11:23:29.233Z,18.37
2018-08-23T11:25:58.456Z,18.73
2018-08-23T11:28:27.960Z,18.43
2018-08-23T11:31:02.387Z,19.40
2018-08-23T11:33:31.686Z,18.43
2018-08-23T11:36:00.874Z,17.03
2018-08-23T11:38:30.491Z,19.50
2018-08-23T11:40:59.650Z,18.67
2018-08-23T11:43:28.998Z,19.77
2018-08-23T11:46:03.571Z,20.17
2018-08-23T11:48:32.673Z,19.80
2018-08-23T11:51:02.614Z,18.90
2018-08-23T11:53:31.903Z,18.20
2018-08-23T11:56:01.000Z,18.03
2018-08-23T11:58:30.208Z,19.87
2018-08-23T12:01:04.689Z,18.43
2018-08-23T12:03:36.269Z,17.70
2018-08-23T12:06:05.536Z,17.57
2018-08-23T12:08:34.920Z,19.40
2018-08-23T12:11:04.218Z,17.57
2018-08-23T12:13:33.525Z,15.60
2018-08-23T12:16:04.252Z,16.60
2018-08-23T12:18:35.889Z,17.87
2018-08-23T12:21:06.459Z,16.60
2018-08-23T12:23:35.856Z,16.00
2018-08-23T12:26:05.256Z,15.27
2018-08-23T12:28:39.756Z,15.80
2018-08-23T12:31:13.951Z,15.57
2018-08-23T12:33:48.614Z,15.20
2018-08-23T12:36:23.291Z,15.23
2018-08-23T12:38:58.689Z,14.33
2018-08-23T12:41:38.827Z,14.53
2018-08-23T12:44:09.167Z,12.80
2018-08-23T12:46:38.656Z,14.70
2018-08-23T12:49:08.894Z,13.37
2018-08-23T12:51:42.617Z,13.10
2018-08-23T12:54:11.863Z,14.03
2018-08-23T12:56:41.409Z,13.67
2018-08-23T12:59:10.835Z,13.17
2018-08-23T13:01:40.151Z,13.63
2018-08-23T13:04:09.594Z,15.37
2018-08-23T13:06:38.714Z,15.50
2018-08-23T13:09:07.981Z,14.77
2018-08-23T13:11:37.179Z,15.17
2018-08-23T13:14:06.365Z,14.93
2018-08-23T13:16:35.573Z,15.17
2018-08-23T13:19:04.769Z,14.27
2018-08-23T13:21:34.046Z,13.93
2018-08-23T13:24:03.301Z,13.80
2018-08-23T13:26:37.768Z,13.47
2018-08-23T13:29:07.022Z,13.00
2018-08-23T13:31:36.449Z,12.70
2018-08-23T13:34:05.856Z,12.53
2018-08-23T13:36:35.600Z,12.57
2018-08-23T13:39:08.216Z,12.30
2018-08-23T13:41:37.514Z,12.07
2018-08-23T13:44:06.715Z,11.93
2018-08-23T13:46:35.837Z,12.33
2018-08-23T13:49:05.336Z,11.47
2018-08-23T13:51:34.614Z,11.77
2018-08-23T13:54:03.830Z,10.83
2018-08-23T13:56:33.234Z,11.70
2018-08-23T13:59:03.260Z,12.37
2018-08-23T14:01:32.555Z,11.73
2018-08-23T14:04:01.817Z,11.37
2018-08-23T14:06:31.044Z,10.60
2018-08-23T14:09:00.191Z,9.70
2018-08-23T14:11:29.508Z,8.93
2018-08-23T14:14:00.078Z,9.20
2018-08-23T14:16:29.492Z,8.87
2018-08-23T14:18:58.846Z,9.27
2018-08-23T14:21:28.113Z,9.97
2018-08-23T14:23:57.272Z,9.33
2018-08-23T14:26:26.593Z,9.77
2018-08-23T14:28:55.720Z,10.50
2018-08-23T14:31:25.045Z,10.27
2018-08-23T14:33:54.264Z,10.40
2018-08-23T14:36:23.537Z,10.47
2018-08-23T14:38:52.819Z,10.07
2018-08-23T14:41:22.052Z,9.47
2018-08-23T14:43:51.542Z,9.00
2018-08-23T14:46:26.809Z,9.03
2018-08-23T14:48:55.999Z,9.23
2018-08-23T14:51:25.208Z,8.93
2018-08-23T14:53:54.445Z,9.77
2018-08-23T14:56:29.039Z,9.63
2018-08-23T14:58:58.651Z,9.33
2018-08-23T15:01:29.467Z,9.83
2018-08-23T15:03:58.868Z,10.13
2018-08-23T15:06:28.027Z,11.27
2018-08-23T15:08:57.267Z,10.57
2018-08-23T15:11:27.071Z,11.20
2018-08-23T15:13:56.661Z,10.90
2018-08-23T15:16:25.964Z,11.17
2018-08-23T15:18:55.794Z,11.40
2018-08-23T15:21:25.235Z,11.03
2018-08-23T15:23:56.155Z,11.47
2018-08-23T15:26:25.503Z,12.10
2018-08-23T15:28:56.112Z,11.03
2018-08-23T15:31:26.702Z,10.83
2018-08-23T15:33:57.557Z,10.13
2018-08-23T15:36:26.783Z,10.00
2018-08-23T15:38:56.284Z,9.57
2018-08-23T15:41:25.453Z,9.23
2018-08-23T15:43:54.752Z,8.77
2018-08-23T15:46:28.219Z,8.60
2018-08-23T15:48:57.561Z,8.87
2018-08-23T15:51:27.268Z,8.63
2018-08-23T15:53:57.569Z,8.97
2018-08-23T15:56:26.904Z,9.03
2018-08-23T15:58:56.120Z,9.23
2018-08-23T16:01:25.493Z,8.67
2018-08-23T16:03:55.508Z,7.77
2018-08-23T16:06:25.008Z,6.50
2018-08-23T16:08:56.133Z,5.63
2018-08-23T16:11:26.809Z,5.27
2018-08-23T16:13:56.431Z,5.20
2018-08-23T16:16:37.030Z,4.90
2018-08-23T16:19:12.589Z,4.80
2018-08-23T16:21:42.170Z,4.30
2018-08-23T16:24:11.307Z,4.70
2018-08-23T16:26:45.931Z,4.23
2018-08-23T16:29:15.129Z,3.87
2018-08-23T16:31:44.327Z,3.60
2018-08-23T16:34:13.675Z,1.97
2018-08-23T16:36:42.856Z,2.23
2018-08-23T16:39:12.057Z,2.27
2018-08-23T16:41:41.379Z,1.97
2018-08-23T16:44:10.681Z,2.37
2018-08-23T16:46:40.639Z,2.37
2018-08-23T16:49:09.880Z,2.47
2018-08-23T16:51:39.326Z,2.90
2018-08-23T16:54:09.096Z,2.90
2018-08-23T16:56:38.308Z,3.70
2018-08-23T16:59:07.450Z,3.60
2018-08-23T17:01:36.789Z,3.97
2018-08-23T17:04:06.998Z,3.80
2018-08-23T17:06:36.392Z,3.80
2018-08-23T17:09:08.171Z,4.13
2018-08-23T17:11:37.398Z,4.70
2018-08-23T17:14:06.877Z,4.57
2018-08-23T17:16:41.340Z,4.53
2018-08-23T17:19:10.699Z,5.53
2018-08-23T17:21:39.905Z,5.70
2018-08-23T17:24:09.212Z,5.73
2018-08-23T17:26:38.384Z,5.63
2018-08-23T17:29:07.702Z,6.33
2018-08-23T17:31:36.908Z,5.93
2018-08-23T17:34:06.332Z,7.07
2018-08-23T17:36:35.641Z,6.73
2018-08-23T17:39:06.485Z,6.73
2018-08-23T17:41:35.849Z,6.80
2018-08-23T17:44:04.986Z,6.70
2018-08-23T17:46:34.375Z,6.90
2018-08-23T17:49:03.880Z,6.13
2018-08-23T17:51:33.385Z,7.63
2018-08-23T17:54:02.599Z,7.70
2018-08-23T17:56:32.067Z,8.07
2018-08-23T17:59:01.245Z,8.17
2018-08-23T18:01:30.584Z,8.27
2018-08-23T18:03:59.889Z,9.23
2018-08-23T18:06:29.236Z,8.87
2018-08-23T18:08:58.446Z,9.90
2018-08-23T18:11:27.618Z,9.47
2018-08-23T18:13:56.873Z,9.10
2018-08-23T18:16:32.517Z,8.87
2018-08-23T18:19:01.982Z,9.47
2018-08-23T18:21:31.340Z,10.10
2018-08-23T18:24:00.552Z,8.67
2018-08-23T18:26:29.856Z,9.20
2018-08-23T18:28:59.262Z,9.20
2018-08-23T18:31:28.628Z,9.07
2018-08-23T18:33:57.805Z,8.70
2018-08-23T18:36:27.047Z,8.93
2018-08-23T18:38:56.287Z,8.33
2018-08-23T18:41:25.693Z,8.80
2018-08-23T18:43:55.611Z,7.73
2018-08-23T18:46:24.967Z,6.57
2018-08-23T18:48:57.671Z,6.73
2018-08-23T18:51:28.938Z,7.07
2018-08-23T18:53:59.054Z,7.23
2018-08-23T18:56:29.475Z,1.97
2018-08-23T18:58:59.125Z,1.47
2018-08-23T19:01:28.661Z,1.13
2018-08-23T19:03:57.809Z,1.13
2018-08-23T19:06:32.549Z,1.17
2018-08-23T19:09:01.788Z,0.97
2018-08-23T19:11:31.042Z,1.33
2018-08-23T19:14:00.613Z,0.43
2018-08-23T19:16:35.303Z,0.80
2018-08-23T19:19:05.026Z,1.20
2018-08-23T19:21:34.148Z,0.90
2018-08-23T19:24:03.447Z,0.80
2018-08-23T19:26:32.625Z,0.80
2018-08-23T19:29:01.914Z,0.63
2018-08-23T19:31:31.185Z,0.80
2018-08-23T19:34:01.192Z,0.90
2018-08-23T19:36:30.340Z,1.13
2018-08-23T19:38:59.844Z,1.07
2018-08-23T19:41:29.129Z,1.00
2018-08-23T19:43:58.326Z,1.10
2018-08-23T19:46:33.136Z,0.93
2018-08-23T19:49:07.750Z,1.07
2018-08-23T19:51:37.152Z,1.10
2018-08-23T19:54:07.894Z,1.57
2018-08-23T19:56:37.220Z,1.40
2018-08-23T19:59:06.343Z,1.40
2018-08-23T20:01:35.631Z,1.20
2018-08-23T20:04:04.872Z,1.03
2018-08-23T20:06:34.269Z,1.10
2018-08-23T20:09:04.404Z,0.90
2018-08-23T20:11:33.977Z,1.00
2018-08-23T20:14:03.312Z,1.20
2018-08-23T20:16:32.572Z,1.20
2018-08-23T20:19:01.888Z,1.60
2018-08-23T20:21:31.182Z,1.70
2018-08-23T20:24:01.008Z,1.80
2018-08-23T20:26:30.132Z,2.00
2018-08-23T20:29:00.842Z,2.20
2018-08-23T20:31:29.966Z,2.70
2018-08-23T20:34:00.617Z,3.17
2018-08-23T20:36:30.656Z,3.33
2018-08-23T20:39:00.280Z,3.73
2018-08-23T20:41:30.513Z,4.27
2018-08-23T20:43:59.728Z,4.70
2018-08-23T20:46:28.910Z,5.47
2018-08-23T20:48:58.394Z,5.80
2018-08-23T20:51:27.556Z,5.80
2018-08-23T20:53:56.775Z,6.07
2018-08-23T20:56:26.191Z,5.63
2018-08-23T20:58:55.516Z,4.90
2018-08-23T21:01:24.735Z,5.17
2018-08-23T21:03:54.075Z,5.13
2018-08-23T21:06:23.268Z,4.80
2018-08-23T21:08:52.487Z,4.73
2018-08-23T21:11:21.680Z,5.27
2018-08-23T21:13:51.097Z,4.87
2018-08-23T21:16:20.331Z,5.07
2018-08-23T21:18:49.661Z,4.77
2018-08-23T21:21:19.016Z,4.50
2018-08-23T21:23:48.304Z,4.27
2018-08-23T21:26:17.456Z,4.27
2018-08-23T21:28:46.925Z,4.23
2018-08-23T21:31:16.099Z,4.30
2018-08-23T21:33:45.335Z,3.70
2018-08-23T21:36:14.579Z,3.60
2018-08-23T21:38:43.830Z,4.10
2018-08-23T21:41:13.187Z,3.93
2018-08-23T21:43:42.491Z,4.03
2018-08-23T21:46:11.988Z,3.53
2018-08-23T21:48:41.604Z,4.20
2018-08-23T21:51:10.743Z,3.77
2018-08-23T21:53:40.054Z,3.87
2018-08-23T21:56:09.376Z,3.57
2018-08-23T21:58:38.609Z,3.27
2018-08-23T22:01:09.131Z,3.20
2018-08-23T22:03:38.862Z,3.60
2018-08-23T22:06:08.080Z,3.70
2018-08-23T22:08:38.252Z,4.07
2018-08-23T22:11:07.945Z,4.00
2018-08-23T22:13:37.187Z,4.57
2018-08-23T22:16:06.401Z,4.80
2018-08-23T22:18:35.633Z,4.57
2018-08-23T22:21:04.907Z,4.40
2018-08-23T22:23:34.081Z,4.47
2018-08-23T22:26:03.267Z,3.97
2018-08-23T22:28:32.470Z,4.00
2018-08-23T22:31:01.787Z,3.63
2018-08-23T22:33:30.926Z,4.30
2018-08-23T22:36:00.187Z,4.00
2018-08-23T22:38:29.328Z,4.10
2018-08-23T22:40:58.516Z,4.77
2018-08-23T22:43:27.740Z,4.47
2018-08-23T22:45:57.604Z,4.47
2018-08-23T22:48:26.754Z,5.10
2018-08-23T22:50:56.069Z,4.07
2018-08-23T22:53:25.288Z,3.97
2018-08-23T22:55:54.969Z,4.37
2018-08-23T22:58:24.083Z,4.57
2018-08-23T23:00:53.383Z,4.47
2018-08-23T23:03:27.830Z,4.60
2018-08-23T23:05:56.987Z,4.60
2018-08-23T23:08:26.204Z,4.47
2018-08-23T23:10:55.522Z,4.63
2018-08-23T23:13:24.667Z,4.13
2018-08-23T23:15:54.151Z,5.10
2018-08-23T23:18:23.487Z,5.23
2018-08-23T23:20:52.800Z,4.47
2018-08-23T23:23:22.015Z,5.20
2018-08-23T23:25:51.424Z,4.03
2018-08-23T23:28:20.631Z,4.80
2018-08-23T23:30:50.098Z,4.93
2018-08-23T23:33:19.520Z,4.37
2018-08-23T23:35:48.804Z,4.67
2018-08-23T23:38:18.261Z,5.03
2018-08-23T23:40:47.523Z,4.83
2018-08-23T23:43:16.664Z,5.90
2018-08-23T23:45:45.840Z,5.03
2018-08-23T23:48:15.030Z,5.50
2018-08-23T23:50:44.217Z,4.97
2018-08-23T23:53:14.066Z,5.80
2018-08-23T23:55:43.444Z,5.00
2018-08-23T23:58:12.634Z,5.63
